KSFB

Orlando Sanford International Airport

Orlando, Florida, USA
KSFB 211720Z 2118/2218 27008KT P6SM VCTS SCT040CB BKN080 TEMPO 2119/2122 3SM TSRA BKN035CB OVC080 FM220000 27005KT P6SM SCT040 BKN120
Issued Valid From Valid To
Jun-21 @ 17:20 UTC
(47 minutes ago)
Jun-21 @ 18:00 UTC
(7 minutes ago)
Jun-22 @ 18:00 UTC
(in 24 hours)
Jun-21 @ 18:00 to Jun-22 @ 00:00
KSFB 211720Z 2118/2218 27008KT P6SM VCTS SCT040CB BKN080
Wind Visibility Clouds Conditions
270° at 8 knots Greater than 6 miles
  • Scattered at 4,000' AGL
  • Broken at 8,000' AGL
  • Area Thunderstorm
Temporary Jun-21 @ 19:00 to Jun-21 @ 22:00
TEMPO 2119/2122 3SM TSRA BKN035CB OVC080
Visibility Clouds Conditions
3 miles
  • Broken at 3,500' AGL
  • Overcast at 8,000' AGL
  • Thunderstorm
  • Rain
From Jun-22 @ 00:00 to Jun-22 @ 18:00
FM220000 27005KT P6SM SCT040 BKN120
Wind Visibility Clouds
270° at 5 knots Greater than 6 miles
  • Scattered at 4,000' AGL
  • Broken at 12,000' AGL
KSFB 211720Z 2118/2218 27008KT P6SM VCTS SCT040CB BKN080 TEMPO 2119/2122 3SM TSRA BKN035CB OVC080 FM220000 27005KT P6SM SCT040 BKN120
Issued Jun-21 @ 17:20 UTC
(47 minutes ago)
Valid From Jun-21 @ 18:00 UTC
(7 minutes ago)
Valid To Jun-22 @ 18:00 UTC
(in 24 hours)
Jun-21 @ 18:00 - Jun-22 @ 00:00
Wind Visibility
270° at 8 knots Greater than 6 miles
Clouds
  • Scattered at 4,000' AGL
  • Broken at 8,000' AGL
Conditions
  • Area Thunderstorm
Temporary Jun-21 @ 19:00 - Jun-21 @ 22:00
Clouds
  • Broken at 3,500' AGL
  • Overcast at 8,000' AGL
Conditions
  • Thunderstorm
  • Rain
From Jun-22 @ 00:00 - Jun-22 @ 18:00
Wind Visibility
270° at 5 knots Greater than 6 miles
Clouds
  • Scattered at 4,000' AGL
  • Broken at 12,000' AGL